createdAt,value
2019-04-29T09:24:24.552Z,12.37
2019-04-29T09:28:32.585Z,12.63
2019-04-29T09:32:41.034Z,14.13
2019-04-29T09:34:44.629Z,11.75
2019-04-29T09:38:52.702Z,13.13
2019-04-29T09:43:21.528Z,16.30
2019-04-29T09:45:35.289Z,14.03
2019-04-29T09:47:38.967Z,14.38
2019-04-29T09:49:42.542Z,13.72
2019-04-29T09:53:48.953Z,14.28
2019-04-29T09:57:55.358Z,15.28
2019-04-29T10:02:13.853Z,15.18
2019-04-29T10:04:24.858Z,16.67
2019-04-29T10:06:36.169Z,16.73
2019-04-29T10:08:39.761Z,14.18
2019-04-29T10:12:46.776Z,16.62
2019-04-29T10:14:50.453Z,18.75
2019-04-29T10:17:15.462Z,16.67
2019-04-29T10:19:18.814Z,20.57
2019-04-29T10:21:23.415Z,17.25
2019-04-29T10:23:27.174Z,18.62
2019-04-29T10:25:30.991Z,19.20
2019-04-29T10:27:34.821Z,20.00
2019-04-29T10:29:38.875Z,20.05
2019-04-29T10:31:42.623Z,20.92
2019-04-29T10:33:50.123Z,20.92
2019-04-29T10:35:51.449Z,20.97
2019-04-29T10:40:10.643Z,15.83
2019-04-29T10:42:06.816Z,19.73
2019-04-29T10:44:28.353Z,19.95
2019-04-29T10:46:33.642Z,19.57
2019-04-29T10:48:48.322Z,20.72
2019-04-29T10:50:54.032Z,20.23
2019-04-29T10:52:57.697Z,21.73
2019-04-29T10:57:04.642Z,20.25
2019-04-29T10:59:11.007Z,21.93
2019-04-29T11:01:30.657Z,17.87
2019-04-29T11:03:34.220Z,22.25
2019-04-29T11:07:44.528Z,20.88
2019-04-29T11:09:52.916Z,26.60
2019-04-29T11:11:56.596Z,27.82
2019-04-29T11:14:01.538Z,29.37
2019-04-29T11:16:06.251Z,26.77
2019-04-29T11:18:09.993Z,28.62
2019-04-29T11:20:15.817Z,29.40
2019-04-29T11:22:21.304Z,31.48
2019-04-29T11:24:32.652Z,34.65
2019-04-29T11:26:40.658Z,36.42
2019-04-29T11:28:46.846Z,39.80
2019-04-29T11:30:49.893Z,40.20
2019-04-29T11:33:12.027Z,39.55
2019-04-29T11:35:24.594Z,39.08
2019-04-29T11:37:26.563Z,37.13
2019-04-29T11:41:33.329Z,39.18
2019-04-29T11:43:37.280Z,43.33
2019-04-29T11:45:41.143Z,39.60
2019-04-29T11:47:44.726Z,43.25
2019-04-29T11:52:08.439Z,43.95
2019-04-29T11:53:58.240Z,44.90
2019-04-29T11:56:01.818Z,45.00
2019-04-29T12:00:40.421Z,47.58
2019-04-29T12:02:51.275Z,40.70
2019-04-29T12:04:56.512Z,42.03
2019-04-29T12:07:00.125Z,42.70
2019-04-29T12:11:08.612Z,41.90
2019-04-29T12:15:24.201Z,38.10
2019-04-29T12:17:32.093Z,34.58
2019-04-29T12:19:43.097Z,40.60
2019-04-29T12:21:47.521Z,37.80
2019-04-29T12:23:52.146Z,40.38
2019-04-29T12:25:58.663Z,37.70
2019-04-29T12:28:04.619Z,39.23
2019-04-29T12:30:09.791Z,39.90
2019-04-29T12:32:31.042Z,33.85
2019-04-29T12:34:42.569Z,31.33
2019-04-29T12:36:55.789Z,31.15
2019-04-29T12:38:53.035Z,31.70
2019-04-29T12:41:20.123Z,31.85
2019-04-29T12:43:20.757Z,34.88
2019-04-29T12:45:28.968Z,34.15
2019-04-29T12:47:34.255Z,33.08
2019-04-29T12:49:37.821Z,39.10
2019-04-29T12:53:44.854Z,32.93
2019-04-29T12:55:53.366Z,30.30
2019-04-29T12:57:55.505Z,31.57
2019-04-29T13:02:23.706Z,28.98
2019-04-29T13:04:38.844Z,32.25
2019-04-29T13:06:49.721Z,23.77
2019-04-29T13:08:54.952Z,29.20
2019-04-29T13:11:00.181Z,23.57
2019-04-29T13:13:03.837Z,25.90
2019-04-29T13:17:21.558Z,23.35
2019-04-29T13:19:29.851Z,19.92
2019-04-29T13:21:32.097Z,22.00
2019-04-29T13:25:40.140Z,22.67
2019-04-29T13:29:46.617Z,25.72
2019-04-29T13:33:54.719Z,24.18
2019-04-29T13:35:58.300Z,26.93
2019-04-29T13:40:07.698Z,25.65
2019-04-29T13:42:15.396Z,26.77
2019-04-29T13:44:19.593Z,24.00
2019-04-29T13:46:23.694Z,29.25
2019-04-29T13:48:55.334Z,30.20
2019-04-29T13:50:52.112Z,29.10
2019-04-29T13:52:56.229Z,34.53
2019-04-29T13:55:17.352Z,35.40
2019-04-29T13:57:08.827Z,33.75
2019-04-29T13:59:12.632Z,32.13
2019-04-29T14:01:23.681Z,40.70
2019-04-29T14:03:30.736Z,43.48
2019-04-29T14:05:36.625Z,46.00
2019-04-29T14:07:39.901Z,45.48
2019-04-29T14:09:43.660Z,48.02
2019-04-29T14:12:01.070Z,48.40
2019-04-29T14:13:52.542Z,54.08
2019-04-29T14:17:58.950Z,54.83
2019-04-29T14:22:05.477Z,51.60
2019-04-29T14:24:09.127Z,53.95
2019-04-29T14:28:15.573Z,61.25
2019-04-29T14:32:33.749Z,52.13
2019-04-29T14:34:34.762Z,58.68
2019-04-29T14:36:39.594Z,59.13
2019-04-29T14:38:43.342Z,596.48
2019-04-29T14:40:46.938Z,87.85
2019-04-29T14:45:04.241Z,61.20
2019-04-29T14:47:21.705Z,70.55
2019-04-29T14:49:26.925Z,66.97
2019-04-29T14:51:36.726Z,67.90
2019-04-29T14:53:35.894Z,81.20
2019-04-29T14:55:42.512Z,61.18
2019-04-29T14:57:46.109Z,61.50
2019-04-29T15:01:54.605Z,60.28
2019-04-29T15:04:16.714Z,69.05
2019-04-29T15:06:07.823Z,106.92
2019-04-29T15:10:14.591Z,55.52
2019-04-29T15:12:21.764Z,65.47
2019-04-29T15:14:35.808Z,61.25
2019-04-29T15:16:53.045Z,62.35
2019-04-29T15:19:08.637Z,65.15
2019-04-29T15:21:11.135Z,69.60
2019-04-29T15:23:27.953Z,75.92
2019-04-29T15:25:21.002Z,81.12
2019-04-29T15:27:25.197Z,93.47
2019-04-29T15:31:31.563Z,67.12
2019-04-29T15:35:39.618Z,80.40
2019-04-29T15:37:43.274Z,63.38
2019-04-29T15:41:54.393Z,41.15
2019-04-29T15:44:07.031Z,40.38
2019-04-29T15:46:02.043Z,39.88
2019-04-29T15:50:18.251Z,36.60
2019-04-29T15:52:16.046Z,44.77
2019-04-29T15:54:19.730Z,46.77
2019-04-29T15:58:29.664Z,51.83
2019-04-29T16:00:37.802Z,79.65
2019-04-29T16:02:41.320Z,48.65
2019-04-29T16:04:48.390Z,43.45
2019-04-29T16:07:00.087Z,46.05
2019-04-29T16:09:09.615Z,50.52
2019-04-29T16:11:33.344Z,49.83
2019-04-29T16:13:36.547Z,46.23
2019-04-29T16:15:40.110Z,49.00
2019-04-29T16:19:46.581Z,55.28
2019-04-29T16:23:57.658Z,60.23
2019-04-29T16:25:58.352Z,58.23
2019-04-29T16:30:07.277Z,54.93
2019-04-29T16:32:12.477Z,55.05
2019-04-29T16:34:16.095Z,54.98
2019-04-29T16:38:22.801Z,61.08
2019-04-29T16:40:33.930Z,61.60
2019-04-29T16:42:38.234Z,65.83
2019-04-29T16:44:42.379Z,70.35
2019-04-29T16:46:46.063Z,61.80
2019-04-29T16:48:49.776Z,62.85
2019-04-29T16:50:53.414Z,68.07
2019-04-29T16:55:04.200Z,67.97
2019-04-29T16:57:05.537Z,89.67
2019-04-29T16:59:09.693Z,138.35
2019-04-29T17:01:13.591Z,79.58
2019-04-29T17:03:17.261Z,85.40
2019-04-29T17:05:21.008Z,74.67
2019-04-29T17:07:24.661Z,87.20
2019-04-29T17:11:40.501Z,83.58
2019-04-29T17:13:44.034Z,88.82
2019-04-29T17:17:52.221Z,87.33
2019-04-29T17:22:24.299Z,91.47
2019-04-29T17:24:04.143Z,97.75
2019-04-29T17:26:07.762Z,105.97
2019-04-29T17:30:38.036Z,102.72
2019-04-29T17:32:44.177Z,115.88
2019-04-29T17:35:17.001Z,114.45
2019-04-29T17:36:53.575Z,116.85
2019-04-29T17:41:00.716Z,105.78
2019-04-29T17:43:11.973Z,110.83
2019-04-29T17:45:27.245Z,107.55
2019-04-29T17:47:27.062Z,96.65
2019-04-29T17:49:44.113Z,108.57
2019-04-29T17:51:47.783Z,103.15
2019-04-29T17:53:55.656Z,106.27
2019-04-29T17:56:09.674Z,98.82
2019-04-29T18:00:21.814Z,94.05
2019-04-29T18:02:43.276Z,171.05
2019-04-29T18:04:57.485Z,97.25
2019-04-29T18:07:09.010Z,117.55
2019-04-29T18:09:13.167Z,94.83
2019-04-29T18:11:16.738Z,95.90
2019-04-29T18:15:26.550Z,94.20
2019-04-29T18:17:31.769Z,91.12
2019-04-29T18:19:39.777Z,100.90
2019-04-29T18:21:56.837Z,100.80
2019-04-29T18:24:02.286Z,93.47
2019-04-29T18:26:10.437Z,97.75
2019-04-29T18:28:15.958Z,105.12
2019-04-29T18:30:34.663Z,105.85
2019-04-29T18:32:35.380Z,118.13
2019-04-29T18:34:33.591Z,137.35
2019-04-29T18:36:36.848Z,117.13
2019-04-29T18:40:46.811Z,100.53
2019-04-29T18:42:50.253Z,104.05
2019-04-29T18:46:58.313Z,98.75
2019-04-29T18:51:06.455Z,90.03
2019-04-29T18:53:10.137Z,91.55
2019-04-29T18:55:13.933Z,88.87
2019-04-29T18:57:27.896Z,88.42
2019-04-29T18:59:30.416Z,91.08
2019-04-29T19:01:28.844Z,83.45
2019-04-29T19:03:37.776Z,84.07
2019-04-29T19:05:45.875Z,103.53
2019-04-29T19:07:55.286Z,88.30
2019-04-29T19:09:55.536Z,88.72
2019-04-29T19:11:59.310Z,87.37
2019-04-29T19:14:02.919Z,105.12
2019-04-29T19:18:12.409Z,86.70
2019-04-29T19:20:18.452Z,87.92
2019-04-29T19:22:21.650Z,86.70
2019-04-29T19:26:28.066Z,97.60
2019-04-29T19:30:36.316Z,102.85
2019-04-29T19:34:43.574Z,98.27
2019-04-29T19:36:50.756Z,124.10
2019-04-29T19:38:54.988Z,109.75
2019-04-29T19:40:58.700Z,117.25
2019-04-29T19:45:12.967Z,104.83
2019-04-29T19:47:15.200Z,106.10
2019-04-29T19:49:16.906Z,120.82
2019-04-29T19:53:25.183Z,109.92
2019-04-29T19:55:33.289Z,90.07
2019-04-29T19:57:36.109Z,89.28
2019-04-29T19:59:43.214Z,97.15
2019-04-29T20:01:48.664Z,93.03
2019-04-29T20:04:11.197Z,86.85
2019-04-29T20:06:24.890Z,100.20
2019-04-29T20:08:41.269Z,91.30
2019-04-29T20:10:36.797Z,84.03
2019-04-29T20:12:37.579Z,79.55
2019-04-29T20:14:41.946Z,91.22
2019-04-29T20:16:59.981Z,105.35
2019-04-29T20:19:20.815Z,90.62
2019-04-29T20:21:28.162Z,83.65
2019-04-29T20:23:29.814Z,79.20
2019-04-29T20:25:38.317Z,82.35
2019-04-29T20:27:42.940Z,79.60
2019-04-29T20:29:45.927Z,90.42
2019-04-29T20:31:53.272Z,91.67
2019-04-29T20:33:56.079Z,83.42
2019-04-29T20:36:02.327Z,79.32
2019-04-29T20:38:05.737Z,77.97
2019-04-29T20:40:09.933Z,75.20
2019-04-29T20:42:15.675Z,67.40
2019-04-29T20:44:19.292Z,77.97
2019-04-29T20:46:23.374Z,86.55
2019-04-29T20:48:27.215Z,74.20
2019-04-29T20:50:31.060Z,72.92
2019-04-29T20:52:39.038Z,74.17
2019-04-29T20:54:42.982Z,67.00
2019-04-29T20:56:48.187Z,72.32
2019-04-29T20:58:52.004Z,77.97
2019-04-29T21:01:02.350Z,88.10
2019-04-29T21:03:04.092Z,78.72
2019-04-29T21:05:09.646Z,85.20
2019-04-29T21:07:18.434Z,80.28
2019-04-29T21:09:22.058Z,82.02
2019-04-29T21:11:27.652Z,90.55
2019-04-29T21:13:35.617Z,94.65
2019-04-29T21:15:45.102Z,106.80
2019-04-29T21:17:48.910Z,102.17
2019-04-29T21:21:55.381Z,108.05
2019-04-29T21:26:05.440Z,114.03
2019-04-29T21:28:07.816Z,118.10
2019-04-29T21:30:12.007Z,132.75
2019-04-29T21:32:15.776Z,126.82
2019-04-29T21:34:20.958Z,124.95
2019-04-29T21:36:26.576Z,122.98
2019-04-29T21:38:38.874Z,154.03
2019-04-29T21:40:46.961Z,145.30
2019-04-29T21:42:52.197Z,132.22
2019-04-29T21:44:58.724Z,144.72
2019-04-29T21:47:04.684Z,133.67
2019-04-29T21:49:11.422Z,146.07
2019-04-29T21:51:12.503Z,140.65
2019-04-29T21:53:16.260Z,151.85
2019-04-29T21:57:25.844Z,142.03
2019-04-29T21:59:29.429Z,140.80
2019-04-29T22:03:37.731Z,133.37
2019-04-29T22:07:47.369Z,134.27
2019-04-29T22:09:50.320Z,137.52
2019-04-29T22:11:55.557Z,143.57
2019-04-29T22:13:59.270Z,145.80
2019-04-29T22:18:07.253Z,141.90
2019-04-29T22:20:12.889Z,146.37
2019-04-29T22:22:16.481Z,149.00
2019-04-29T22:26:26.860Z,142.80
2019-04-29T22:28:30.222Z,142.50
2019-04-29T22:30:35.419Z,142.95
2019-04-29T22:32:39.427Z,150.25
2019-04-29T22:34:45.080Z,146.43
2019-04-29T22:36:52.752Z,162.07
2019-04-29T22:38:53.573Z,168.62
2019-04-29T22:43:10.266Z,152.38
2019-04-29T22:45:11.691Z,158.57
2019-04-29T22:47:17.309Z,158.75
2019-04-29T22:49:27.278Z,143.43
2019-04-29T22:51:25.865Z,159.15
2019-04-29T22:55:36.548Z,165.25
2019-04-29T22:57:37.509Z,170.38
2019-04-29T23:01:49.329Z,146.80
2019-04-29T23:03:49.216Z,143.43
2019-04-29T23:07:56.970Z,144.72
2019-04-29T23:10:00.921Z,158.52
2019-04-29T23:14:10.148Z,151.40
2019-04-29T23:16:13.940Z,159.37
2019-04-29T23:20:25.420Z,154.68
2019-04-29T23:22:36.568Z,151.78
2019-04-29T23:24:53.282Z,155.50
2019-04-29T23:26:56.861Z,151.72
2019-04-29T23:31:05.061Z,144.45
2019-04-29T23:33:08.633Z,142.20
2019-04-29T23:37:15.174Z,143.15
2019-04-29T23:39:18.751Z,128.95
2019-04-29T23:43:28.293Z,135.52
2019-04-29T23:45:30.445Z,142.30
2019-04-29T23:49:42.301Z,125.85
2019-04-29T23:51:42.151Z,131.63
2019-04-29T23:55:48.941Z,126.85
